createdAt,value
2023-08-08T00:03:00.311Z,35
2023-08-08T00:08:16.174Z,36
2023-08-08T00:13:33.603Z,35
2023-08-08T00:18:48.462Z,35
2023-08-08T00:24:03.996Z,36
2023-08-08T00:29:20.801Z,35
2023-08-08T00:34:38.872Z,35
2023-08-08T00:39:54.424Z,35
2023-08-08T00:45:09.936Z,36
2023-08-08T00:50:28.029Z,36
2023-08-08T00:55:43.524Z,36
2023-08-08T01:00:59.757Z,36
2023-08-08T01:06:14.570Z,36
2023-08-08T01:11:30.101Z,36
2023-08-08T01:16:47.021Z,36
2023-08-08T01:32:34.984Z,36
2023-08-08T01:37:50.287Z,36
2023-08-08T01:43:07.696Z,36
2023-08-08T01:48:24.464Z,36
2023-08-08T01:53:39.343Z,36
2023-08-08T01:58:55.559Z,36
2023-08-08T02:04:11.807Z,36
2023-08-08T02:09:29.815Z,36
2023-08-08T02:14:46.559Z,36
2023-08-08T02:20:02.074Z,36
2023-08-08T02:25:18.223Z,36
2023-08-08T02:30:33.750Z,36
2023-08-08T02:35:48.628Z,36
2023-08-08T02:41:04.210Z,35
2023-08-08T02:46:20.522Z,36
2023-08-08T02:51:36.473Z,36
2023-08-08T02:56:52.640Z,36
2023-08-08T03:02:10.697Z,35
2023-08-08T03:07:26.923Z,36
2023-08-08T03:12:43.695Z,36
2023-08-08T03:17:58.828Z,36
2023-08-08T03:23:15.364Z,36
2023-08-08T03:28:32.795Z,36
2023-08-08T03:33:49.677Z,36
2023-08-08T03:39:05.106Z,36
2023-08-08T03:44:21.941Z,36
2023-08-08T03:49:37.455Z,36
2023-08-08T03:54:54.280Z,36
2023-08-08T04:00:09.899Z,36
2023-08-08T04:05:26.724Z,36
2023-08-08T04:10:42.773Z,37
2023-08-08T04:15:59.514Z,37
2023-08-08T04:21:14.413Z,37
2023-08-08T04:26:29.974Z,37
2023-08-08T04:31:47.398Z,37
2023-08-08T04:37:04.275Z,37
2023-08-08T04:42:20.340Z,38
2023-08-08T05:13:54.100Z,38
2023-08-08T05:19:12.805Z,38
2023-08-08T05:24:28.312Z,38
2023-08-08T05:29:43.229Z,39
2023-08-08T05:34:58.109Z,38
2023-08-08T05:40:13.724Z,38
2023-08-08T05:45:28.604Z,38
2023-08-08T05:50:45.284Z,38
2023-08-08T05:56:00.415Z,38
2023-08-08T06:01:18.319Z,39
2023-08-08T06:32:58.642Z,39
2023-08-08T06:38:15.360Z,39
2023-08-08T06:43:31.410Z,39
2023-08-08T06:48:47.008Z,39
2023-08-08T06:54:01.767Z,39
2023-08-08T06:59:17.407Z,39
2023-08-08T07:04:33.451Z,39
2023-08-08T07:09:48.969Z,39
2023-08-08T07:15:03.228Z,39
2023-08-08T07:20:18.711Z,39
2023-08-08T07:25:32.951Z,39
2023-08-08T07:30:47.977Z,39
2023-08-08T07:36:04.034Z,39
2023-08-08T07:41:21.463Z,39
2023-08-08T07:46:40.908Z,39
2023-08-08T07:51:56.366Z,38
2023-08-08T07:57:13.142Z,39
2023-08-08T08:02:33.481Z,39
2023-08-08T08:07:50.073Z,39
2023-08-08T08:13:04.791Z,38
2023-08-08T08:18:20.964Z,38
2023-08-08T08:23:37.133Z,37
2023-08-08T08:28:53.316Z,37
2023-08-08T08:34:09.418Z,36
2023-08-08T08:39:25.081Z,35
2023-08-08T08:44:43.805Z,35
2023-08-08T09:37:27.243Z,31
2023-08-08T09:42:35.664Z,31
2023-08-08T09:47:51.906Z,31
2023-08-08T09:53:07.137Z,31
2023-08-08T09:58:23.515Z,31
2023-08-08T10:03:39.526Z,31
2023-08-08T10:08:53.962Z,32
2023-08-08T10:14:10.710Z,32
2023-08-08T10:19:28.150Z,31
2023-08-08T10:24:46.295Z,31
2023-08-08T10:30:03.736Z,30
2023-08-08T10:35:20.472Z,30
2023-08-08T10:40:35.369Z,30
2023-08-08T10:46:14.295Z,30
2023-08-08T10:51:10.250Z,30
2023-08-08T10:56:25.801Z,31
2023-08-08T11:01:41.951Z,31
2023-08-08T11:06:57.450Z,31
2023-08-08T11:08:43.072Z,31
2023-08-08T11:13:59.845Z,31
2023-08-08T11:19:17.989Z,31
2023-08-08T11:24:34.721Z,31
2023-08-08T11:29:50.370Z,32
2023-08-08T11:35:09.589Z,32
2023-08-08T11:40:24.482Z,33
2023-08-08T11:48:50.981Z,33
2023-08-08T11:57:28.865Z,32
2023-08-08T12:03:09.233Z,31
2023-08-08T12:08:24.497Z,31
2023-08-08T12:13:39.409Z,32
2023-08-08T12:18:55.535Z,31
2023-08-08T12:24:09.163Z,31
2023-08-08T12:29:24.012Z,30
2023-08-08T12:34:41.412Z,30
2023-08-08T12:39:57.602Z,30
2023-08-08T12:45:13.141Z,30
2023-08-08T12:50:29.268Z,29
2023-08-08T12:55:45.447Z,29
2023-08-08T13:01:01.049Z,29
2023-08-08T13:06:17.748Z,29
2023-08-08T13:11:33.268Z,29
2023-08-08T13:16:50.183Z,29
2023-08-08T13:22:07.517Z,29
2023-08-08T13:27:22.396Z,30
2023-08-08T13:32:38.005Z,29
2023-08-08T13:37:54.124Z,30
2023-08-08T13:43:09.599Z,30
2023-08-08T13:48:24.482Z,30
2023-08-08T13:53:40.044Z,30
2023-08-08T13:58:56.806Z,30
2023-08-08T14:04:14.250Z,30
2023-08-08T14:09:29.126Z,31
2023-08-08T14:14:47.200Z,31
2023-08-08T14:20:01.460Z,30
2023-08-08T14:25:16.401Z,30
2023-08-08T14:30:31.176Z,30
2023-08-08T14:35:48.634Z,30
2023-08-08T14:41:03.512Z,30
2023-08-08T14:46:19.230Z,30
2023-08-08T14:51:35.824Z,30
2023-08-08T14:56:50.710Z,30
2023-08-08T15:02:05.657Z,30
2023-08-08T15:07:21.106Z,29
2023-08-08T15:12:38.043Z,29
2023-08-08T15:23:12.893Z,29
2023-08-08T15:28:28.356Z,28
2023-08-08T15:33:45.165Z,28
2023-08-08T15:39:01.039Z,28
2023-08-08T15:44:18.072Z,28
2023-08-08T15:49:32.323Z,29
2023-08-08T15:54:47.830Z,28
2023-08-08T16:00:03.990Z,28
2023-08-08T16:05:20.821Z,28
2023-08-08T16:10:34.398Z,28
2023-08-08T16:15:49.270Z,28
2023-08-08T16:21:05.429Z,27
2023-08-08T16:26:24.153Z,27
2023-08-08T16:31:39.154Z,27
2023-08-08T16:36:57.120Z,27
2023-08-08T16:42:16.423Z,27
2023-08-08T16:47:26.868Z,27
2023-08-08T16:52:42.424Z,27
2023-08-08T16:58:00.525Z,27
2023-08-08T17:03:18.710Z,27
2023-08-08T17:08:33.445Z,27
2023-08-08T17:13:48.991Z,27
2023-08-08T17:19:05.232Z,27
2023-08-08T17:24:36.004Z,26
2023-08-08T17:29:35.578Z,27
2023-08-08T17:34:53.605Z,27
2023-08-08T17:40:10.427Z,27
2023-08-08T17:45:25.961Z,27
2023-08-08T17:50:45.924Z,28
2023-08-08T17:56:02.741Z,28
2023-08-08T18:01:20.217Z,27
2023-08-08T18:06:35.039Z,27
2023-08-08T18:11:50.561Z,27
2023-08-08T18:17:07.354Z,28
2023-08-08T18:22:22.247Z,28
2023-08-08T18:27:38.409Z,28
2023-08-08T18:32:54.797Z,28
2023-08-08T18:38:09.425Z,29
2023-08-08T18:43:26.870Z,29
2023-08-08T18:48:40.528Z,29
2023-08-08T18:53:57.313Z,30
2023-08-08T18:59:12.825Z,30
2023-08-08T19:04:28.961Z,30
2023-08-08T19:09:44.537Z,30
2023-08-08T19:15:01.251Z,30
2023-08-08T19:20:17.430Z,30
2023-08-08T19:25:34.226Z,30
2023-08-08T19:30:49.150Z,31
2023-08-08T19:36:06.594Z,31
2023-08-08T19:41:21.438Z,31
2023-08-08T19:46:38.237Z,31
2023-08-08T19:51:54.441Z,31
2023-08-08T19:57:10.577Z,31
2023-08-08T20:02:25.526Z,32
2023-08-08T20:07:40.434Z,32
2023-08-08T20:12:55.837Z,32
2023-08-08T20:18:12.637Z,32
2023-08-08T20:23:27.503Z,33
2023-08-08T20:28:43.667Z,33
2023-08-08T20:34:00.506Z,33
2023-08-08T20:39:19.682Z,34
2023-08-08T20:44:29.595Z,34
2023-08-08T20:49:45.785Z,34
2023-08-08T20:55:01.926Z,34
2023-08-08T21:00:18.711Z,35
2023-08-08T21:05:34.913Z,35
2023-08-08T21:10:51.060Z,35
2023-08-08T21:16:05.951Z,35
2023-08-08T21:21:22.096Z,35
2023-08-08T21:26:40.678Z,36
2023-08-08T21:31:53.854Z,36
2023-08-08T21:37:10.558Z,36
2023-08-08T21:42:24.817Z,36
2023-08-08T21:47:41.167Z,36
2023-08-08T21:52:55.826Z,36
2023-08-08T21:58:12.635Z,36
2023-08-08T22:03:26.260Z,36
2023-08-08T22:08:43.387Z,36
2023-08-08T22:14:02.235Z,36
2023-08-08T22:19:13.434Z,36
2023-08-08T22:24:28.354Z,36
2023-08-08T22:29:45.109Z,37
2023-08-08T22:35:01.272Z,37
2023-08-08T22:40:19.357Z,37
2023-08-08T22:59:53.786Z,37
2023-08-08T23:05:09.327Z,37
2023-08-08T23:10:24.795Z,38
2023-08-08T23:15:42.229Z,38
2023-08-08T23:20:57.117Z,38
2023-08-08T23:26:12.646Z,38
2023-08-08T23:31:29.047Z,38
2023-08-08T23:36:44.315Z,38
2023-08-08T23:42:00.486Z,38
2023-08-08T23:47:16.640Z,39
2023-08-08T23:52:31.542Z,39
2023-08-08T23:57:47.164Z,39
